Date,TemperatureHighF,TemperatureAvgF,TemperatureLowF,DewpointHighF,DewpointAvgF,DewpointLowF,HumidityHigh,HumidityAvg,HumidityLow,PressureMaxIn,PressureMinIn,WindSpeedMaxMPH,WindSpeedAvgMPH,GustSpeedMaxMPH,PrecipitationSumIn
2013-1-1,44.7,37.0,28.5,24.0,18.4,16.0,78,48,34,30.32,30.22,10,4,13,0.00
2013-1-2,48.0,35.2,22.2,19.0,15.8,12.0,73,47,26,30.32,30.18,10,4,15,0.00
2013-1-3,37.8,30.4,24.4,29.0,23.1,12.0,94,76,44,30.43,30.21,11,3,19,0.00
2013-1-4,30.9,28.3,24.1,28.0,25.9,21.0,94,91,82,30.49,30.40,3,0,6,0.05
2013-1-5,31.8,27.0,20.3,30.0,24.6,18.0,94,90,81,30.55,30.46,8,2,13,0.06
2013-1-6,47.8,35.6,22.0,29.0,23.7,17.0,84,64,43,30.56,30.18,11,2,19,0.01
2013-1-7,54.5,45.5,37.8,32.0,27.6,22.0,64,51,38,30.17,29.83,18,4,24,0.00
2013-1-8,57.7,45.6,35.4,31.0,23.2,12.0,75,46,17,30.02,29.82,18,6,29,0.00
2013-1-9,59.5,45.7,33.3,28.0,19.8,14.0,51,37,24,30.29,30.02,16,5,24,0.00
2013-1-10,54.6,46.8,35.6,30.0,22.5,16.0,48,39,28,30.08,29.86,13,5,17,0.00
2013-1-11,50.7,44.5,37.2,28.0,18.8,8.0,58,36,28,29.86,29.76,19,9,30,0.00
2013-1-12,40.4,32.6,24.6,10.0,4.1,-1.0,41,30,18,30.15,29.85,22,6,25,0.00
2013-1-13,38.9,29.8,20.7,11.0,5.2,-1.0,46,36,25,30.25,30.09,9,4,15,0.00
2013-1-14,40.6,32.9,23.9,15.0,6.7,-2.0,57,35,19,30.15,30.05,13,5,23,0.00
2013-1-15,35.1,26.3,17.6,12.0,2.0,-7.0,63,38,17,30.52,30.13,21,9,23,0.00
2013-1-16,47.4,31.9,20.0,9.0,2.8,-6.0,40,30,19,30.59,30.46,14,5,16,0.00
2013-1-17,55.1,42.4,25.3,23.0,15.1,6.0,46,34,25,30.59,30.40,11,4,19,0.00
2013-1-18,57.5,46.1,35.1,23.0,19.8,17.0,50,36,22,30.40,30.20,14,3,17,0.00
2013-1-19,61.6,47.7,37.8,21.0,16.1,6.0,45,30,17,30.34,30.22,10,5,12,0.00
2013-1-20,62.8,48.7,33.7,16.0,11.6,6.0,37,23,13,30.27,30.11,8,4,10,0.00
2013-1-21,63.9,48.0,35.3,16.0,13.6,9.0,39,26,15,30.25,30.13,12,4,14,0.00
2013-1-22,65.9,52.6,38.7,15.0,11.5,7.0,34,20,11,30.25,30.15,13,6,18,0.00
2013-1-23,67.7,54.0,41.0,22.0,15.2,11.0,35,22,13,30.32,30.18,9,3,10,0.00
2013-1-24,66.6,57.2,45.4,38.0,25.8,18.0,47,31,21,30.24,30.10,8,2,9,0.00
2013-1-25,63.4,56.7,52.1,41.0,39.2,36.0,62,53,42,30.15,30.02,9,3,14,0.00
2013-1-26,65.3,57.1,50.4,49.0,45.1,40.0,79,65,48,30.04,29.85,12,3,18,0.00
2013-1-27,62.0,54.4,47.2,46.0,41.7,37.0,85,64,43,29.96,29.87,13,3,20,0.00
2013-1-28,61.6,52.6,43.6,39.0,35.2,29.0,75,54,30,29.91,29.75,25,8,31,0.00
2013-1-29,43.1,37.6,32.3,32.0,20.0,11.0,77,51,28,30.10,29.76,33,12,42,0.00
2013-1-30,48.7,37.2,28.8,23.0,14.0,4.0,77,43,17,30.36,30.11,14,5,17,0.00
2013-1-31,55.1,44.3,31.3,22.0,16.9,13.0,49,34,23,30.34,30.22,14,6,19,0.00
2013-2-1,61.7,47.7,36.5,19.0,15.9,14.0,42,29,18,30.28,30.16,9,4,12,0.00
2013-2-2,64.5,49.5,34.6,19.0,14.9,10.0,44,27,14,30.34,30.23,9,4,12,0.00
2013-2-3,62.1,52.6,44.5,33.0,17.7,11.0,49,26,17,30.25,29.93,10,2,22,0.00
2013-2-4,62.2,53.2,45.5,33.0,29.0,25.0,51,40,29,29.98,29.89,14,6,19,0.00
2013-2-5,65.7,52.8,41.8,34.0,26.7,18.0,64,40,19,30.02,29.89,11,4,13,0.00
2013-2-6,64.6,58.1,45.3,32.0,29.3,26.0,51,34,25,29.93,29.81,13,5,17,0.00
2013-2-7,63.0,53.0,38.2,32.0,25.8,18.0,67,37,18,30.04,29.92,16,5,27,0.00
2013-2-8,65.9,56.4,49.5,26.0,20.5,6.0,38,26,14,30.02,29.75,24,12,30,0.00
2013-2-9,55.7,47.6,35.2,24.0,16.2,10.0,44,29,18,29.93,29.64,33,11,40,0.00
2013-2-10,51.7,40.2,30.0,17.0,13.0,7.0,58,35,18,30.04,29.93,12,3,15,0.00
2013-2-11,56.8,45.0,35.2,28.0,13.4,7.0,65,29,15,30.03,29.86,17,5,23,0.00
2013-2-12,48.1,38.7,32.1,30.0,16.9,0.0,87,49,15,30.21,29.95,18,6,23,0.00
2013-2-13,53.8,40.2,27.4,13.0,10.1,7.0,47,31,16,30.25,30.11,13,5,15,0.00
2013-2-14,58.8,45.9,30.2,17.0,13.1,8.0,42,28,18,30.17,30.03,12,5,14,0.00
2013-2-15,56.6,44.9,34.5,22.0,16.3,9.0,45,33,16,30.37,30.14,13,4,17,0.00
2013-2-16,60.3,45.7,30.7,21.0,12.5,4.0,47,29,11,30.43,30.16,9,3,14,0.00
2013-2-17,67.1,52.2,37.2,11.0,6.5,2.0,26,17,8,30.15,29.77,13,5,21,0.00
2013-2-18,62.6,52.2,40.7,12.0,6.9,3.0,27,17,10,30.01,29.84,13,4,19,0.00
2013-2-19,58.6,51.0,46.5,44.0,20.8,3.0,89,42,11,29.98,29.74,16,7,22,0.11
2013-2-20,57.8,47.1,31.9,40.0,28.6,17.0,90,54,20,29.75,29.51,25,10,36,0.00
2013-2-21,48.8,37.2,28.0,24.0,22.5,20.0,82,57,32,30.02,29.73,15,5,22,0.00
2013-2-22,52.4,41.9,29.8,23.0,20.0,16.0,70,44,25,30.09,29.97,19,4,23,0.00
2013-2-23,58.0,46.1,36.6,21.0,15.0,9.0,51,29,20,30.11,29.78,20,6,20,0.00
2013-2-24,53.8,42.6,27.8,24.0,18.2,5.0,66,39,20,29.92,29.59,36,9,41,0.00
2013-2-25,52.2,38.7,26.8,19.0,11.7,7.0,71,36,16,30.16,29.93,15,7,19,0.00
2013-2-26,62.9,45.6,31.6,16.0,7.7,-3.0,45,24,7,30.05,29.81,22,7,26,0.00
2013-2-27,51.7,41.4,27.9,9.0,-0.7,-9.0,27,18,10,30.27,30.05,17,6,28,0.00
2013-2-28,55.5,43.8,31.4,10.0,4.6,-2.0,35,21,10,30.36,30.25,14,4,18,0.00
2013-3-1,64.1,49.9,36.4,15.0,8.0,-1.0,24,19,14,30.37,30.23,14,6,21,0.00
2013-3-2,69.4,55.3,39.6,19.0,14.5,10.0,31,21,13,30.36,30.13,9,3,19,0.00
2013-3-3,76.2,61.7,48.9,16.0,9.2,-7.0,24,14,4,30.13,29.81,24,7,31,0.00
2013-3-4,72.8,61.8,51.1,24.0,19.2,12.0,30,20,12,29.92,29.63,28,8,35,0.00
2013-3-5,64.6,54.9,42.2,25.0,21.5,17.0,39,28,19,30.17,29.93,17,7,23,0.00
2013-3-6,73.6,61.7,48.8,26.0,24.7,23.0,36,25,17,30.10,29.84,17,6,23,0.00
2013-3-7,74.8,64.4,53.4,25.0,21.4,6.0,31,20,7,29.90,29.76,13,5,23,0.00
2013-3-8,63.4,58.5,50.3,46.0,31.9,22.0,70,38,22,29.83,29.68,21,8,31,0.01
2013-3-9,51.3,44.3,35.1,35.0,26.1,20.0,72,51,30,29.99,29.74,25,10,35,0.00
2013-3-10,53.5,43.1,30.3,28.0,22.6,18.0,78,48,28,30.20,30.00,13,4,21,0.00
2013-3-11,64.7,50.1,36.2,23.0,18.4,13.0,52,31,15,30.21,30.01,12,4,15,0.00
2013-3-12,71.2,58.1,41.6,22.0,16.9,13.0,33,21,13,30.13,30.02,21,4,25,0.00
2013-3-13,73.8,60.4,46.8,24.0,17.6,8.0,34,21,8,30.21,30.07,14,5,18,0.00
2013-3-14,78.8,65.2,49.0,13.0,10.6,6.0,22,13,6,30.17,30.00,8,4,12,0.00
2013-3-15,83.0,68.4,55.0,12.0,9.7,6.0,17,11,6,30.02,29.77,12,4,16,0.00
2013-3-16,80.9,67.5,52.8,18.0,11.1,5.0,20,12,6,29.77,29.58,23,6,26,0.00
2013-3-17,74.9,63.8,50.1,25.0,17.0,8.0,33,17,9,29.76,29.60,28,8,37,0.00
2013-3-18,73.9,60.5,45.0,20.0,11.0,2.0,26,15,6,29.91,29.77,16,5,25,0.00
2013-3-19,73.8,62.7,50.9,22.0,16.9,9.0,23,17,13,29.96,29.79,18,5,22,0.00
2013-3-20,69.2,59.7,46.0,29.0,24.3,20.0,39,26,20,30.07,29.79,13,5,20,0.00
2013-3-21,72.5,64.3,54.6,28.0,24.6,22.0,29,22,16,29.79,29.53,20,6,27,0.00
2013-3-22,74.7,63.4,54.5,30.0,23.6,16.0,33,23,14,29.67,29.50,24,5,34,0.00
2013-3-23,68.8,59.3,48.9,29.0,12.1,-19.0,37,19,4,29.87,29.64,32,10,43,0.00
2013-3-24,60.2,47.7,32.7,1.0,-8.1,-17.0,14,10,6,30.06,29.84,13,3,15,0.00
2013-3-25,61.7,50.9,37.0,9.0,2.7,-2.0,19,14,10,30.11,29.94,14,5,20,0.00
2013-3-26,67.4,56.3,39.3,16.0,12.3,6.0,30,18,12,30.16,29.95,18,7,20,0.00
2013-3-27,74.5,63.9,55.7,20.0,17.8,15.0,23,17,12,29.97,29.84,14,5,19,0.00
2013-3-28,77.5,67.3,53.4,26.0,19.8,13.0,21,16,13,29.98,29.84,13,4,21,0.00
2013-3-29,79.5,68.0,56.5,20.0,16.7,9.0,23,15,9,29.96,29.83,18,6,24,0.00
2013-3-30,77.1,68.9,59.2,23.0,14.5,10.0,16,12,9,29.94,29.78,15,6,26,0.00
2013-3-31,78.2,67.7,59.1,29.0,24.2,16.0,31,20,12,29.88,29.75,12,5,16,0.00
2013-4-1,80.2,68.2,56.0,25.0,18.1,10.0,27,16,7,29.88,29.69,21,5,23,0.00
2013-4-2,76.2,65.1,52.1,26.0,15.9,4.0,28,16,7,29.77,29.61,21,6,29,0.00
2013-4-3,71.4,59.1,44.1,32.0,24.8,3.0,47,29,11,29.96,29.75,12,4,19,0.00
2013-4-4,76.4,63.6,48.7,29.0,21.1,7.0,37,22,7,30.07,29.91,8,3,17,0.00
2013-4-5,82.4,73.5,62.5,24.0,15.4,-1.0,18,12,4,29.88,29.66,19,9,25,0.00
2013-4-6,78.9,68.4,57.1,29.0,21.8,13.0,28,18,8,29.81,29.67,20,6,24,0.00
2013-4-7,80.2,69.8,54.8,29.0,22.6,19.0,26,17,11,29.77,29.57,17,6,24,0.00
2013-4-8,79.9,69.3,58.7,32.0,24.0,17.0,30,19,10,29.61,29.30,31,11,39,0.00
2013-4-9,64.6,55.2,47.0,36.0,26.9,18.0,63,36,19,29.77,29.32,24,12,37,0.00
2013-4-10,62.5,51.6,39.6,29.0,23.7,18.0,61,36,18,29.91,29.77,20,6,30,0.00
2013-4-11,71.2,56.4,39.2,21.0,16.3,8.0,41,23,10,29.91,29.70,16,5,23,0.00
2013-4-12,74.9,63.3,48.5,23.0,17.2,13.0,25,17,12,29.78,29.62,9,3,13,0.00
2013-4-13,79.3,69.7,58.9,26.0,19.3,12.0,25,15,8,29.70,29.52,22,7,24,0.00
2013-4-14,78.1,66.1,52.9,26.0,21.6,18.0,29,19,12,29.65,29.51,23,7,31,0.00
2013-4-15,80.9,67.7,52.4,31.0,23.2,16.0,41,20,9,29.68,29.55,18,6,27,0.00
2013-4-16,82.9,69.4,52.1,24.0,14.9,5.0,28,14,5,29.71,29.56,27,8,33,0.00
2013-4-17,75.7,63.9,46.4,25.0,18.8,14.0,42,18,10,29.78,29.46,29,13,37,0.00
2013-4-18,62.1,51.5,42.3,22.0,12.6,-1.0,42,24,10,30.11,29.78,26,11,28,0.00
2013-4-19,65.0,53.0,38.3,4.0,-4.6,-19.0,19,10,3,30.24,29.98,19,5,22,0.00
2013-4-20,78.0,63.6,48.0,10.0,-0.7,-11.0,13,8,3,29.98,29.71,24,6,31,0.00
2013-4-21,80.5,67.9,50.2,15.0,8.3,2.0,18,10,6,29.96,29.78,14,5,20,0.00
2013-4-22,85.1,71.2,52.7,13.0,7.0,1.0,17,9,4,29.86,29.62,22,6,25,0.00
2013-4-23,83.3,70.9,58.4,23.0,11.4,5.0,23,11,5,29.78,29.58,25,7,34,0.00
2013-4-24,74.5,61.7,46.8,28.0,23.8,18.0,42,25,12,29.97,29.79,18,6,22,0.00
2013-4-25,82.6,70.5,63.2,37.0,27.3,2.0,34,22,5,29.93,29.68,23,10,28,0.00
2013-4-26,79.4,67.7,56.7,20.0,13.8,4.0,23,13,6,29.97,29.80,12,4,19,0.00
2013-4-27,82.1,70.2,57.4,27.0,15.5,4.0,24,13,5,29.98,29.80,20,5,30,0.00
2013-4-28,83.7,73.5,59.4,35.0,21.0,11.0,25,15,7,29.83,29.63,17,5,21,0.00
2013-4-29,87.1,74.6,63.8,29.0,11.6,-12.0,22,11,2,29.70,29.51,13,5,21,0.00
2013-4-30,88.9,78.6,60.6,19.0,7.0,-3.0,15,7,3,29.61,29.50,20,6,28,0.00
2013-5-1,85.1,74.3,60.9,17.0,9.9,-5.0,16,9,3,29.78,29.56,16,5,44,0.00
2013-5-2,71.8,57.6,47.6,31.0,21.9,7.0,49,28,8,30.27,29.78,24,8,32,0.00
2013-5-3,66.3,54.1,40.2,19.0,14.2,8.0,43,23,10,30.34,29.95,15,6,22,0.00
2013-5-4,79.3,66.7,52.7,20.0,14.5,7.0,23,14,10,29.95,29.70,18,4,24,0.00
2013-5-5,80.6,72.0,65.2,27.0,21.3,14.0,18,15,12,29.86,29.68,24,12,33,0.00
2013-5-6,78.4,69.6,61.4,39.0,30.3,23.0,43,24,15,29.82,29.69,19,7,25,0.00
2013-5-7,77.7,68.2,57.1,33.0,27.7,21.0,34,23,13,29.88,29.71,16,4,28,0.00
2013-5-8,77.8,67.3,58.1,31.0,23.3,15.0,31,20,10,29.87,29.74,17,5,23,0.00
2013-5-9,77.8,67.4,54.0,30.0,23.1,16.0,28,19,12,29.86,29.74,18,4,20,0.00
2013-5-10,71.4,62.6,52.1,48.0,37.1,26.0,83,43,21,30.03,29.79,19,5,22,0.04
2013-5-11,72.2,61.7,48.6,47.0,39.3,32.0,81,48,24,30.18,30.03,16,6,31,0.03
2013-5-12,76.7,67.4,55.5,39.0,33.7,28.0,52,30,18,30.14,29.95,25,7,32,0.00
2013-5-13,80.8,70.8,60.7,36.0,24.6,2.0,39,21,5,30.07,29.91,17,6,25,0.00
2013-5-14,81.2,71.4,60.6,41.0,34.7,28.0,43,27,15,29.94,29.72,14,4,21,0.00
2013-5-15,90.3,75.9,61.7,36.0,31.9,26.0,36,22,12,29.83,29.61,18,5,29,0.00
2013-5-16,89.7,78.9,68.9,30.0,24.2,14.0,22,14,6,29.75,29.57,17,6,22,0.00
2013-5-17,89.5,78.7,63.6,29.0,22.2,11.0,23,13,7,29.71,29.58,15,4,22,0.00
2013-5-18,86.4,75.2,61.9,29.0,18.5,2.0,20,13,4,29.74,29.59,17,5,29,0.00
2013-5-19,84.6,73.2,58.7,29.0,21.0,15.0,25,15,8,29.74,29.57,24,6,26,0.00
2013-5-20,85.8,74.9,62.0,30.0,23.4,14.0,27,16,7,29.72,29.53,19,9,31,0.00
2013-5-21,84.0,72.1,57.9,29.0,20.1,5.0,31,16,5,29.79,29.64,15,8,25,0.00
2013-5-22,89.4,78.0,64.5,19.0,12.4,6.0,14,9,5,29.72,29.56,14,5,25,0.00
2013-5-23,94.7,82.1,69.1,47.0,22.3,16.0,38,12,6,29.68,29.51,14,4,32,0.00
2013-5-24,90.6,79.8,67.3,46.0,37.2,25.0,47,24,11,29.77,29.62,14,6,19,0.00
2013-5-25,92.7,81.9,72.1,54.0,35.0,11.0,52,24,5,29.74,29.60,22,7,28,0.00
2013-5-26,91.7,80.1,66.6,24.0,14.1,1.0,14,9,4,29.78,29.62,20,5,27,0.00
2013-5-27,90.9,77.8,63.4,17.0,7.0,-10.0,12,7,2,29.72,29.54,16,4,20,0.00
2013-5-28,89.7,78.2,63.2,13.0,7.3,-6.0,14,7,3,29.57,29.39,27,6,27,0.00
2013-5-29,85.6,75.4,62.5,33.0,24.4,10.0,23,15,8,29.55,29.41,24,8,28,0.00
2013-5-30,89.4,78.0,62.5,38.0,32.6,28.0,29,20,14,29.68,29.53,25,6,26,0.00
2013-5-31,93.6,80.9,66.2,38.0,32.1,27.0,28,18,9,29.70,29.52,15,4,21,0.00
2013-6-1,93.1,84.3,72.1,38.0,20.1,6.0,23,10,4,29.68,29.58,26,8,34,0.00
2013-6-2,93.8,81.2,72.3,54.0,47.1,38.0,44,31,19,29.70,29.49,34,15,39,0.00
2013-6-3,95.0,81.7,69.7,52.0,37.5,8.0,52,27,4,29.69,29.55,31,8,36,0.00
2013-6-4,95.7,84.5,70.4,35.0,22.2,12.0,19,10,7,29.69,29.53,13,6,23,0.00
2013-6-5,94.4,84.4,72.6,35.0,21.8,4.0,23,12,4,29.66,29.52,19,6,25,0.00
2013-6-6,91.2,80.5,65.4,44.0,33.2,10.0,36,19,7,29.67,29.57,27,7,31,0.00
2013-6-7,88.3,79.2,70.0,54.0,47.1,34.0,58,34,18,29.70,29.54,25,7,33,0.00
2013-6-8,98.2,83.5,69.3,49.0,39.0,23.0,42,24,8,29.64,29.45,17,6,22,0.00
2013-6-9,98.2,85.6,69.1,51.0,40.4,23.0,37,21,11,29.63,29.50,21,8,26,0.00
2013-6-10,101.1,89.9,79.1,49.0,43.5,31.0,32,21,9,29.67,29.52,20,8,26,0.00
2013-6-11,101.9,91.2,79.0,44.0,36.2,26.0,26,15,7,29.65,29.49,16,6,24,0.00
2013-6-12,103.2,90.7,77.3,45.0,35.2,13.0,23,15,4,29.65,29.51,20,6,24,0.00
2013-6-13,96.4,86.8,76.2,57.0,47.3,38.0,43,27,14,29.65,29.52,28,10,31,0.00
2013-6-14,91.2,80.7,70.1,57.0,52.7,46.0,57,39,23,29.67,29.53,31,8,40,0.06
2013-6-15,96.2,83.6,70.5,59.0,48.6,36.0,64,33,12,29.73,29.60,15,4,26,0.03
2013-6-16,96.8,86.1,74.3,51.0,44.9,42.0,37,25,16,29.74,29.59,15,4,22,0.00
2013-6-17,96.7,85.5,76.0,59.0,48.7,45.0,45,29,17,29.69,29.54,27,5,33,0.02
2013-6-18,94.4,84.7,74.4,57.0,49.9,34.0,49,32,14,29.72,29.56,17,8,25,0.00
2013-6-19,99.6,88.8,77.6,58.0,42.8,18.0,45,24,6,29.61,29.44,21,8,25,0.00
2013-6-20,98.7,87.2,77.4,49.0,43.6,34.0,35,23,12,29.64,29.49,21,9,30,0.01
2013-6-21,97.3,86.0,75.6,51.0,43.0,14.0,42,25,7,29.69,29.52,18,7,29,0.00
2013-6-22,97.5,86.3,74.3,37.0,23.3,12.0,13,10,7,29.70,29.50,21,6,25,0.00
2013-6-23,96.8,85.3,72.6,51.0,29.6,15.0,43,15,8,29.66,29.50,17,5,26,0.00
2013-6-24,96.4,86.1,73.6,40.0,33.5,27.0,19,15,12,29.67,29.52,16,4,23,0.00
2013-6-25,96.6,86.0,71.7,35.0,25.5,12.0,19,12,5,29.72,29.59,19,5,26,0.00
2013-6-26,100.1,87.4,71.7,16.0,7.8,-4.0,11,6,2,29.76,29.63,16,5,21,0.00
2013-6-27,104.8,92.7,71.8,38.0,11.0,3.0,15,5,3,29.74,29.60,14,4,22,0.00
2013-6-28,98.1,90.5,85.2,45.0,39.1,33.0,21,17,12,29.80,29.65,20,8,29,0.00
2013-6-29,100.1,89.2,78.3,45.0,39.5,28.0,27,18,8,29.76,29.58,15,4,22,0.00
2013-6-30,96.6,87.0,75.6,58.0,47.5,43.0,53,26,17,29.75,29.53,25,9,36,0.06
2013-7-1,82.4,73.4,65.4,61.0,57.2,53.0,82,59,39,29.92,29.74,24,9,30,0.17
2013-7-2,85.2,75.1,64.6,58.0,52.4,47.0,76,48,27,29.99,29.78,28,7,44,0.06
2013-7-3,89.6,76.7,65.0,59.0,53.1,47.0,81,47,24,29.92,29.64,20,5,29,0.12
2013-7-4,93.7,80.2,68.1,56.0,51.7,47.0,63,39,21,29.72,29.56,12,3,18,0.00
2013-7-5,96.4,85.2,69.8,53.0,48.7,37.0,54,30,13,29.66,29.49,12,4,17,0.00
2013-7-6,97.2,84.4,74.5,54.0,51.5,49.0,47,33,20,29.59,29.47,14,4,23,0.00
2013-7-7,98.2,87.5,78.7,60.0,52.7,48.0,45,31,20,29.62,29.51,15,6,23,0.05
2013-7-8,95.8,85.2,75.7,56.0,51.8,47.0,47,33,19,29.74,29.61,19,8,24,0.00
2013-7-9,96.2,86.7,75.4,57.0,53.5,46.0,49,33,22,29.80,29.63,20,6,28,0.00
2013-7-10,95.4,85.9,74.4,59.0,55.7,52.0,57,37,24,29.78,29.61,13,5,22,0.00
2013-7-11,95.0,85.0,73.4,60.0,55.1,48.0,62,37,21,29.73,29.60,16,5,22,0.00
2013-7-12,92.6,83.2,72.6,65.0,55.4,50.0,61,40,26,29.73,29.57,14,6,22,0.18
2013-7-13,95.9,84.1,70.2,62.0,53.7,44.0,69,39,20,29.76,29.60,15,4,25,0.00
2013-7-14,96.9,86.8,72.7,59.0,47.1,-99.9,57,27,21,29.69,29.49,19,6,27,0.10
2013-7-15,80.2,73.5,68.4,64.0,57.9,48.0,78,59,42,29.85,29.57,26,8,28,0.02
2013-7-16,82.2,73.1,64.4,56.0,50.9,47.0,74,48,30,29.92,29.83,20,7,29,0.00
2013-7-17,81.3,72.2,65.9,63.0,54.5,51.0,71,55,38,29.99,29.88,24,11,34,0.03
2013-7-18,71.7,67.0,62.2,65.0,61.4,59.0,93,82,69,29.98,29.88,19,4,29,0.49
2013-7-19,81.2,73.0,66.4,64.0,61.7,60.0,88,69,49,29.95,29.73,14,4,20,0.00
2013-7-20,85.4,75.4,68.2,63.0,61.3,58.0,80,63,42,29.80,29.63,28,6,31,0.00
2013-7-21,91.6,78.2,69.3,66.0,59.1,52.0,77,55,27,29.75,29.60,12,3,28,0.02
2013-7-22,93.1,77.2,67.1,65.0,62.0,57.0,84,62,30,29.75,29.61,14,5,19,0.00
2013-7-23,91.8,76.4,67.1,67.0,62.3,57.0,88,65,31,29.77,29.60,24,4,31,0.09
2013-7-24,90.0,77.5,66.3,67.0,63.4,59.0,93,65,36,29.84,29.68,28,6,46,1.09
2013-7-25,83.5,73.9,65.4,66.0,63.8,60.6,92,72,49,29.91,29.80,13,3,17,0.19
2013-7-26,88.8,75.7,69.9,69.0,65.6,61.0,91,72,40,29.91,29.79,35,3,52,0.26
2013-7-27,80.9,72.6,64.9,67.0,62.7,59.0,94,73,51,29.95,29.77,18,4,28,0.40
2013-7-28,87.7,76.1,67.2,65.0,62.3,59.0,88,64,38,29.80,29.65,12,2,18,0.00
2013-7-29,93.7,81.4,69.0,64.0,58.2,50.0,79,49,23,29.79,29.70,15,3,17,0.00
2013-7-30,93.4,81.4,71.1,60.0,56.7,50.0,65,44,25,29.87,29.77,25,4,28,0.00
2013-7-31,96.0,84.6,73.0,60.0,54.7,46.0,60,38,18,29.89,29.74,19,5,26,0.01
2013-8-1,92.8,84.1,73.4,63.0,55.1,49.0,67,39,23,29.85,29.69,14,5,21,0.00
2013-8-2,94.6,83.8,70.6,62.0,56.4,52.0,71,41,24,29.75,29.63,11,3,17,0.00
2013-8-3,94.2,83.6,71.5,61.0,56.5,51.0,66,42,24,29.78,29.66,11,4,16,0.00
2013-8-4,96.9,85.6,75.6,58.0,53.5,48.0,50,34,20,29.79,29.61,13,4,18,0.00
2013-8-5,94.3,83.8,72.1,59.0,55.1,49.0,60,38,24,29.77,29.61,13,4,21,0.00
2013-8-6,91.1,80.1,71.3,60.0,55.8,51.0,64,45,26,29.77,29.66,14,4,19,0.00
2013-8-7,87.3,77.2,68.5,61.0,56.4,52.0,67,50,30,29.80,29.66,16,4,23,0.00
2013-8-8,92.0,84.0,73.4,58.0,45.3,-99.9,59,27,20,29.79,29.64,17,-10,27,0.00
2013-8-9,94.0,83.9,70.7,52.0,43.3,39.0,37,25,15,29.77,29.67,15,4,27,0.00
2013-8-10,83.4,78.4,72.4,61.0,54.8,50.0,68,45,33,29.89,29.76,26,11,33,0.06
2013-8-11,87.5,72.6,61.9,67.0,61.2,57.0,95,71,38,29.95,29.80,22,8,28,1.00
2013-8-12,90.2,80.6,71.7,67.0,60.8,58.0,74,52,35,29.86,29.71,18,5,26,0.00
2013-8-13,91.7,79.6,71.8,65.0,59.5,52.0,76,53,29,29.85,29.72,10,4,14,0.01
2013-8-14,91.6,82.3,73.1,62.0,56.6,49.0,63,42,28,29.86,29.67,23,5,33,0.00
2013-8-15,89.5,78.5,68.4,61.0,58.2,54.0,75,52,32,29.88,29.76,10,3,13,0.00
2013-8-16,92.9,81.4,70.6,61.0,56.0,51.0,64,43,27,29.86,29.74,10,3,22,0.00
2013-8-17,96.4,84.5,71.0,56.0,49.3,42.0,50,31,16,29.85,29.67,14,3,19,0.00
2013-8-18,95.0,85.3,75.4,54.0,49.9,44.0,46,30,19,29.79,29.66,23,5,30,0.00
2013-8-19,94.8,81.8,72.2,60.0,52.8,49.0,57,38,22,29.79,29.65,17,3,31,0.00
2013-8-20,89.4,83.2,70.4,60.1,54.5,48.8,68,39,27,29.79,29.69,16,4,22,0.00
2013-8-21,92.4,81.4,68.5,59.0,50.3,34.0,66,38,18,29.80,29.69,17,5,21,0.00
2013-8-22,90.2,82.8,74.1,53.0,45.2,36.0,43,28,17,29.82,29.68,20,6,28,0.00
2013-8-23,88.4,79.7,73.3,55.0,52.9,50.0,52,40,28,29.79,29.65,20,8,27,0.00
2013-8-24,87.2,79.6,72.2,59.0,55.1,52.0,56,44,32,29.82,29.71,17,8,24,0.00
2013-8-25,89.8,80.7,70.2,60.0,55.3,51.0,69,43,27,29.88,29.76,16,8,22,0.00
2013-8-26,90.3,82.0,75.4,57.0,53.3,49.0,48,38,25,29.88,29.73,19,9,23,0.00
2013-8-27,83.9,77.9,72.0,59.0,56.3,52.0,59,48,37,29.83,29.72,14,6,23,0.00
2013-8-28,79.9,73.0,68.2,67.0,61.8,58.0,92,70,48,29.91,29.77,7,3,12,0.04
2013-8-29,78.5,70.9,64.9,67.0,64.5,61.0,95,81,57,30.01,29.90,10,2,17,0.24
2013-8-30,88.2,76.1,64.8,65.0,62.6,60.0,88,65,41,29.95,29.77,8,2,12,0.00
2013-8-31,93.4,81.8,71.1,64.0,58.2,51.0,69,47,24,29.80,29.62,8,3,12,0.00
2013-9-1,95.5,84.7,71.0,59.0,50.8,41.0,60,34,16,29.71,29.61,18,5,25,0.00
2013-9-2,92.3,83.6,72.5,56.0,52.1,46.0,45,34,25,29.77,29.63,21,7,26,0.00
2013-9-3,89.7,82.2,74.8,57.0,51.8,42.0,51,36,22,29.83,29.69,16,5,26,0.00
2013-9-4,89.7,82.3,75.0,55.0,48.8,44.0,47,32,21,29.88,29.76,19,7,23,0.00
2013-9-5,90.7,83.4,77.2,52.0,45.7,40.0,41,28,18,29.88,29.77,25,8,26,0.00
2013-9-6,89.6,82.4,74.6,55.0,52.4,46.0,49,36,24,29.86,29.70,19,8,23,0.00
2013-9-7,89.5,82.7,76.1,55.0,51.3,42.0,46,35,23,29.79,29.64,17,9,22,0.00
2013-9-8,89.7,81.8,76.0,61.0,51.8,48.0,60,36,24,29.72,29.55,25,10,28,0.03
2013-9-9,87.5,77.6,69.1,64.0,56.2,52.0,83,49,30,29.67,29.54,16,9,27,0.03
2013-9-10,74.8,68.7,65.4,66.0,63.5,60.0,94,84,68,29.83,29.65,20,6,21,0.71
2013-9-11,76.8,69.6,65.7,68.0,64.8,63.0,94,85,67,29.89,29.79,13,2,23,0.53
2013-9-12,71.7,68.4,65.6,65.0,63.0,58.0,94,83,62,29.85,29.78,25,5,28,0.41
2013-9-13,74.1,69.0,64.0,64.0,59.1,-99.9,92,75,53,29.83,29.70,22,8,30,0.16
2013-9-14,80.0,74.2,67.2,59.0,56.4,54.0,72,54,43,29.77,29.66,19,6,29,0.07
2013-9-15,83.2,74.9,63.1,61.0,56.5,52.0,80,54,42,29.80,29.69,22,7,27,0.04
2013-9-16,80.5,74.1,65.8,61.0,58.6,56.0,80,59,48,29.89,29.77,18,8,28,0.02
2013-9-17,81.6,75.0,68.6,61.0,59.2,56.0,73,59,46,29.85,29.69,18,8,22,0.01
2013-9-18,82.8,75.0,67.9,63.0,59.6,58.0,74,60,46,29.76,29.61,17,8,21,0.07
2013-9-19,85.4,74.8,67.8,63.0,60.1,51.0,76,61,36,29.72,29.58,24,5,33,0.00
2013-9-20,80.2,71.9,62.5,63.0,58.9,54.0,89,66,43,29.83,29.69,18,6,26,0.00
2013-9-21,76.6,69.1,61.1,59.0,56.1,52.0,84,64,49,29.89,29.74,14,4,17,0.00
2013-9-22,81.7,72.8,64.2,56.0,52.2,50.0,64,50,35,29.75,29.50,16,8,22,0.00
2013-9-23,80.1,70.6,62.4,54.0,42.4,34.0,63,38,19,29.81,29.55,12,5,14,0.00
2013-9-24,82.5,70.5,60.0,43.0,38.5,33.0,45,32,21,29.95,29.79,11,3,14,0.00
2013-9-25,86.3,74.8,64.5,51.0,44.0,36.0,42,33,26,29.79,29.54,15,4,18,0.00
2013-9-26,84.9,75.0,61.7,48.0,42.9,37.0,48,33,23,29.67,29.55,11,4,17,0.00
2013-9-27,82.6,73.5,61.7,57.0,49.2,42.0,61,43,24,29.73,29.54,20,7,27,0.00
2013-9-28,75.1,62.0,49.7,43.0,28.8,18.0,57,32,12,30.07,29.73,13,7,17,0.00
2013-9-29,79.6,64.8,49.4,39.0,29.8,21.0,42,28,17,30.09,29.90,9,3,14,0.00
2013-9-30,84.9,70.7,55.0,44.0,35.2,24.0,53,30,12,29.91,29.71,10,3,17,0.00
2013-10-1,85.7,72.2,54.6,40.0,28.8,19.0,45,22,9,29.82,29.72,9,3,14,0.00
2013-10-2,84.0,71.0,58.0,38.0,33.5,28.0,36,26,17,29.84,29.70,11,3,18,0.00
2013-10-3,82.2,70.0,57.0,41.0,35.3,28.0,48,29,14,29.79,29.63,15,4,19,0.00
2013-10-4,80.5,69.9,58.2,45.0,40.1,35.0,56,35,22,29.80,29.68,19,4,20,0.00
2013-10-5,70.4,59.2,48.3,35.0,20.8,13.0,37,24,12,30.10,29.80,15,8,18,0.00
2013-10-6,74.9,60.1,46.9,31.0,23.8,19.0,37,26,15,30.19,30.07,10,4,13,0.00
2013-10-7,76.7,64.7,52.3,31.0,26.2,23.0,38,25,14,30.15,29.94,13,4,16,0.00
2013-10-8,81.1,70.4,59.3,38.0,31.1,22.0,31,24,17,29.93,29.68,14,5,19,0.00
2013-10-9,80.6,69.8,58.4,44.0,37.7,33.0,40,32,22,29.80,29.65,19,5,22,0.00
2013-10-10,78.4,67.9,57.8,47.0,39.3,33.0,55,36,21,29.75,29.60,31,10,36,0.00
2013-10-11,72.7,62.2,55.2,41.0,36.1,32.0,49,38,26,29.87,29.75,13,5,19,0.00
2013-10-12,77.5,65.6,49.9,39.0,34.7,29.0,57,33,20,29.98,29.85,15,5,18,0.00
2013-10-13,79.2,72.4,67.2,51.0,46.6,37.0,52,41,29,29.88,29.76,18,8,19,0.00
2013-10-14,73.7,67.4,60.8,51.0,48.2,46.0,65,51,39,29.87,29.77,17,3,22,0.00
2013-10-15,71.8,63.7,58.4,54.0,49.0,43.0,71,60,40,29.87,29.75,19,7,23,0.00
2013-10-16,72.8,61.5,51.7,51.0,35.4,12.0,79,46,12,29.95,29.80,16,5,24,0.00
2013-10-17,72.8,58.2,42.8,31.0,21.9,16.0,42,26,13,30.02,29.84,10,2,14,0.00
2013-10-18,73.9,60.9,43.9,23.0,18.1,14.0,36,20,12,29.95,29.85,10,3,14,0.00
2013-10-19,70.1,56.7,42.4,31.0,27.1,20.0,52,34,20,30.11,29.94,8,2,12,0.00
2013-10-20,75.5,61.3,48.3,30.0,20.2,9.0,41,24,8,29.96,29.76,12,3,20,0.00
2013-10-21,71.0,58.5,42.9,34.0,25.2,15.0,42,28,20,30.05,29.82,16,4,17,0.00
2013-10-22,72.7,58.7,45.2,38.0,32.6,25.0,61,40,22,30.16,30.01,7,3,10,0.00
2013-10-23,75.8,64.5,51.9,35.0,31.6,27.0,43,30,19,30.05,29.91,10,4,17,0.00
2013-10-24,78.4,70.3,57.9,41.0,37.2,31.0,41,30,25,29.99,29.85,19,6,27,0.00
2013-10-25,75.3,68.4,63.0,45.0,40.4,36.0,43,36,28,29.97,29.85,19,8,28,0.00
2013-10-26,73.9,62.4,49.2,45.0,39.1,31.0,79,46,21,30.07,29.92,14,5,19,0.00
2013-10-27,71.9,61.8,48.5,41.0,38.3,35.0,62,43,31,30.06,29.79,10,4,14,0.00
2013-10-28,75.8,66.9,56.6,41.0,31.8,23.0,50,29,14,29.85,29.73,20,6,25,0.00
2013-10-29,67.8,65.2,62.4,33.0,27.9,16.0,31,25,15,29.87,29.76,11,2,13,0.00
2013-10-30,67.9,61.9,54.2,45.0,41.0,32.0,61,47,33,29.85,29.68,20,8,26,0.00
2013-10-31,66.2,57.9,47.9,29.0,21.8,16.0,42,26,17,30.04,29.91,15,4,17,0.00
2013-11-1,66.4,55.9,46.8,27.0,23.1,20.0,40,29,18,30.14,29.98,21,8,24,0.00
2013-11-2,68.8,59.5,44.3,24.0,21.2,17.0,41,23,16,30.22,29.94,19,6,23,0.00
2013-11-3,73.5,62.9,52.0,42.0,30.8,17.0,57,31,18,29.94,29.66,14,4,20,0.00
2013-11-4,70.3,60.7,50.7,50.0,45.6,41.0,83,59,38,29.80,29.68,13,5,19,0.00
2013-11-5,65.6,57.8,47.1,46.0,36.4,27.0,70,47,28,30.04,29.70,18,6,26,0.00
2013-11-6,63.4,48.9,37.0,30.0,18.6,6.0,64,34,14,30.35,30.05,13,4,18,0.00
2013-11-7,67.3,53.3,37.5,26.0,14.0,6.0,31,21,15,30.44,30.20,14,4,17,0.00
2013-11-8,69.4,56.6,43.7,41.0,32.8,23.0,55,41,29,30.20,29.95,7,2,14,0.00
2013-11-9,73.4,58.4,46.4,47.0,34.6,27.0,80,44,21,30.09,30.00,7,2,10,0.00
2013-11-10,73.8,61.6,48.9,33.0,28.8,24.0,45,30,16,30.17,30.04,12,4,12,0.00
2013-11-11,75.3,63.7,51.5,40.0,34.4,26.0,55,35,24,30.10,29.99,8,2,9,0.00
2013-11-12,62.0,56.1,46.2,41.0,36.5,28.0,72,49,34,30.41,30.10,28,8,36,0.00
2013-11-13,58.5,51.0,45.1,42.0,39.6,36.0,76,66,53,30.41,30.10,10,2,14,0.00
2013-11-14,68.0,56.4,42.8,43.0,40.1,37.0,84,57,35,30.10,29.86,7,2,10,0.00
2013-11-15,67.7,57.9,50.8,48.0,43.8,36.0,75,61,42,29.87,29.66,19,8,24,0.00
2013-11-16,71.2,60.9,52.9,49.0,42.0,34.0,83,54,26,29.77,29.61,21,7,30,0.01
2013-11-17,66.9,58.1,49.5,42.0,38.4,33.0,73,50,30,30.02,29.77,13,5,20,0.00
2013-11-18,69.8,59.9,52.8,39.0,35.4,32.0,50,41,31,30.09,29.95,9,4,10,0.00
2013-11-19,70.2,59.3,47.8,42.0,38.9,36.0,69,48,31,29.97,29.79,10,2,15,0.00
2013-11-20,68.6,59.2,50.2,40.0,36.5,33.0,55,44,30,29.84,29.72,9,2,17,0.00
2013-11-21,69.3,61.7,51.4,42.0,37.9,34.0,55,42,32,29.92,29.81,22,4,30,0.00
2013-11-22,64.8,48.0,37.9,39.0,33.8,27.0,70,59,32,30.25,29.83,31,11,40,0.00
2013-11-23,42.1,37.8,32.5,32.0,29.6,26.0,92,72,63,30.42,30.26,14,5,31,0.00
2013-11-24,32.6,31.2,28.8,30.0,29.0,27.0,94,91,88,30.39,30.30,5,2,11,0.10
2013-11-25,42.7,34.4,29.8,35.0,30.9,28.0,92,87,73,30.41,30.25,16,4,18,0.15
2013-11-26,51.4,40.5,31.7,32.0,28.7,26.0,86,65,43,30.52,30.41,10,3,15,0.00
2013-11-27,47.0,40.5,33.6,31.0,25.6,22.0,70,56,40,30.45,30.24,13,3,14,0.00
2013-11-28,57.3,42.9,31.2,32.0,27.2,23.0,73,56,32,30.32,30.22,7,2,9,0.00
2013-11-29,63.1,48.7,35.8,36.0,32.4,29.0,76,55,35,30.34,30.20,4,1,9,0.00
2013-11-30,61.4,52.0,42.5,39.0,35.8,33.0,73,55,40,30.24,30.13,9,2,12,0.00
2013-12-1,62.1,54.3,49.8,40.0,37.3,34.0,64,53,41,30.17,30.07,9,2,13,0.00
2013-12-2,63.5,53.8,42.7,34.0,26.0,17.0,60,37,19,30.07,29.83,11,4,17,0.00
2013-12-3,68.5,58.1,49.4,36.0,20.6,12.0,52,24,11,29.83,29.64,14,2,21,0.00
2013-12-4,68.0,57.2,49.4,44.0,36.6,28.0,71,49,25,29.77,29.60,24,8,37,0.00
2013-12-5,55.9,47.4,39.2,41.0,35.9,31.0,79,65,48,29.95,29.72,18,5,22,0.01
2013-12-6,49.0,40.3,33.3,31.0,21.2,8.0,76,50,19,30.16,29.95,9,3,14,0.00
2013-12-7,45.4,40.0,31.9,36.0,31.2,23.0,88,71,55,30.13,29.97,16,5,21,0.00
2013-12-8,51.4,43.3,36.8,28.0,23.8,18.0,60,47,36,30.06,29.97,18,6,24,0.00
2013-12-9,52.2,41.9,27.4,30.0,21.4,3.0,78,47,22,30.39,30.01,18,6,24,0.00
2013-12-10,48.1,33.7,19.6,5.0,2.4,-1.0,48,29,14,30.48,30.32,18,6,20,0.00
2013-12-11,56.4,42.6,29.7,19.0,11.8,1.0,45,29,21,30.48,30.34,9,2,12,0.00
2013-12-12,46.2,40.0,33.7,39.0,31.5,18.0,93,74,39,30.46,30.19,12,3,15,0.06
2013-12-13,55.5,44.4,36.8,40.0,36.3,33.0,93,74,48,30.18,30.01,14,2,20,0.00
2013-12-14,52.8,43.5,34.8,35.0,26.2,23.0,85,52,34,30.39,30.08,12,4,15,0.00
2013-12-15,54.0,42.4,31.0,25.0,21.7,17.0,71,47,26,30.42,30.31,13,6,15,0.00
2013-12-16,60.9,46.2,32.4,25.0,23.1,20.0,64,42,24,30.37,30.25,13,7,15,0.00
2013-12-17,65.3,50.3,37.9,26.0,23.9,22.0,57,37,21,30.35,30.21,13,5,17,0.00
2013-12-18,61.9,50.0,36.9,25.0,23.4,21.0,54,36,21,30.22,29.92,6,2,8,0.00
2013-12-19,66.7,55.6,45.8,26.0,18.8,7.0,43,25,10,29.91,29.66,16,4,22,0.00
2013-12-20,55.1,49.1,37.9,42.0,33.2,20.0,89,59,26,29.70,29.51,15,4,18,0.28
2013-12-21,43.4,38.4,33.0,36.0,32.4,29.0,94,79,61,29.98,29.62,25,10,33,0.08
2013-12-22,49.9,40.1,30.4,31.0,26.5,19.0,85,61,30,30.33,29.98,10,3,14,0.00
2013-12-23,53.8,41.2,31.6,26.0,24.1,19.0,73,53,26,30.50,30.33,9,4,11,0.00
2013-12-24,56.1,42.3,31.4,29.0,24.4,19.0,65,51,32,30.45,30.20,7,3,9,0.00
2013-12-25,51.9,42.7,33.9,27.0,25.6,24.0,69,52,37,30.42,30.25,19,4,24,0.00
2013-12-26,51.9,39.8,30.0,27.0,25.1,23.0,79,58,33,30.42,30.26,8,2,13,0.00
2013-12-27,55.0,40.7,29.9,27.0,22.8,19.0,76,52,27,30.42,30.30,6,2,8,0.00
2013-12-28,54.2,43.4,31.0,28.0,23.3,18.0,75,47,31,30.29,29.99,10,2,11,0.00
2013-12-29,49.8,43.7,32.6,25.0,22.6,18.0,66,44,34,30.22,29.97,9,2,14,0.00
2013-12-30,53.4,40.8,28.1,26.0,21.6,17.0,78,49,24,30.39,30.22,13,4,14,0.00
2013-12-31,55.1,43.4,30.6,22.0,20.2,18.0,63,41,25,30.38,30.18,7,2,10,0.00
2014-1-1,62.3,46.5,34.7,24.0,22.3,21.0,59,41,21,30.24,30.08,10,3,16,0.00
2014-1-2,56.7,44.6,33.6,26.0,22.9,19.0,64,44,29,30.39,30.24,11,2,18,0.00